METAR

Station
VRMM
METAR VRMM 221800Z 09005KT 8000 FEW018 BKN270 28/25 Q1011 NOSIG=
VRMH
METAR VRMH 221800Z 08005KT 7000 FEW018 28/25 Q1010=
VRMK
METAR VRMK 221800Z VRB01KT 9000 FEW018 27.0/25.0 Q1011.4=
VRMT
METAR VRMT 221800Z 00000KT 9999 FEW018 25/23 Q1011=
VRMG
METAR VRMG 221800Z 27006KT 9999 FEW019 26/25 Q1011 NOSIG=
Last Updated : 2021-01-22 22:59:17

SPECI

Station
VRMM
VRMH
VRMK
VRMT
VRMG
Last Updated : 2021-01-22 22:59:17